LNR95VE LFMP-LFPO
Flight info
| Callsign | LNR95VE |
|---|---|
| Flight time | 1h 11m |
| Altitude | 34000 |
| Route | ORBIL G36 GAI DCT PERIG DCT DIBAG DCT TUDRA/N0389F280 DCT BEVOL UT158 AMB |
| Aircraft | A320/M-SDE3FGHIRWY/LB1 |
Departure
| Time | 2026-04-20 12:54 |
|---|---|
| Airport | Perpignan-Rivesaltes (Llabanère) Airport (LFMP) |
Arrival
| Time | 2026-04-20 14:06 |
|---|---|
| Airport | Paris-Orly Airport (LFPO) |
| Time | Latitude | Longitude | Altitude | Speed | Heading |
|---|---|---|---|---|---|
| 2026-04-20 12:46 | 42.74012 | 2.86952 | 147 ft | 0 kts | 346° |
| 2026-04-20 12:50 | 42.74014 | 2.86953 | 147 ft | 1 kts | 4° |
| 2026-04-20 12:51 | 42.74012 | 2.86967 | 147 ft | 4 kts | 111° |
| 2026-04-20 12:51 | 42.73989 | 2.87055 | 145 ft | 16 kts | 71° |
| 2026-04-20 12:51 | 42.74050 | 2.87089 | 144 ft | 3 kts | 320° |
| 2026-04-20 12:51 | 42.74110 | 2.87023 | 144 ft | 20 kts | 328° |
| 2026-04-20 12:52 | 42.74249 | 2.86880 | 144 ft | 26 kts | 332° |
| 2026-04-20 12:52 | 42.74410 | 2.86747 | 143 ft | 28 kts | 330° |
| 2026-04-20 12:52 | 42.74583 | 2.86609 | 142 ft | 30 kts | 329° |
| 2026-04-20 12:52 | 42.74760 | 2.86454 | 141 ft | 31 kts | 328° |
| 2026-04-20 12:53 | 42.74904 | 2.86339 | 141 ft | 17 kts | 342° |
| 2026-04-20 12:53 | 42.74981 | 2.86397 | 141 ft | 8 kts | 91° |
| 2026-04-20 12:53 | 42.74970 | 2.86461 | 141 ft | 6 kts | 102° |
| 2026-04-20 12:53 | 42.74954 | 2.86547 | 141 ft | 14 kts | 120° |
| 2026-04-20 12:54 | 42.74864 | 2.86633 | 141 ft | 25 kts | 149° |
| 2026-04-20 12:54 | 42.74450 | 2.86982 | 145 ft | 113 kts | 148° |
| 2026-04-20 12:54 | 42.73577 | 2.87723 | 237 ft | 172 kts | 147° |
| 2026-04-20 12:54 | 42.72477 | 2.88637 | 789 ft | 198 kts | 147° |
| 2026-04-20 12:55 | 42.71366 | 2.89820 | 1488 ft | 207 kts | 125° |
| 2026-04-20 12:55 | 42.70987 | 2.91700 | 2146 ft | 219 kts | 81° |
| 2026-04-20 12:55 | 42.71663 | 2.93553 | 2843 ft | 226 kts | 39° |
| 2026-04-20 12:55 | 42.73104 | 2.94373 | 3560 ft | 231 kts | 358° |
| 2026-04-20 12:56 | 42.74643 | 2.93752 | 4248 ft | 239 kts | 324° |
| 2026-04-20 12:56 | 42.75787 | 2.92053 | 4911 ft | 252 kts | 300° |
| 2026-04-20 12:56 | 42.76683 | 2.89941 | 5690 ft | 261 kts | 299° |
| 2026-04-20 12:56 | 42.77573 | 2.87764 | 6560 ft | 265 kts | 298° |
| 2026-04-20 12:57 | 42.78474 | 2.85542 | 7404 ft | 269 kts | 298° |
| 2026-04-20 12:57 | 42.79383 | 2.83297 | 8340 ft | 272 kts | 298° |
| 2026-04-20 12:57 | 42.80317 | 2.81078 | 9322 ft | 274 kts | 304° |
| 2026-04-20 12:57 | 42.81748 | 2.79357 | 10188 ft | 280 kts | 328° |
| 2026-04-20 12:58 | 42.83481 | 2.77990 | 10719 ft | 296 kts | 327° |
| 2026-04-20 12:58 | 42.85316 | 2.76525 | 11164 ft | 314 kts | 327° |
| 2026-04-20 12:58 | 42.87243 | 2.74981 | 11709 ft | 324 kts | 327° |
| 2026-04-20 12:58 | 42.89200 | 2.73408 | 12482 ft | 329 kts | 327° |
| 2026-04-20 12:59 | 42.91162 | 2.71831 | 13312 ft | 331 kts | 327° |
| 2026-04-20 12:59 | 42.93166 | 2.70219 | 14117 ft | 334 kts | 327° |
| 2026-04-20 12:59 | 42.95178 | 2.68601 | 14764 ft | 337 kts | 327° |
| 2026-04-20 12:59 | 42.97214 | 2.66961 | 15408 ft | 341 kts | 326° |
| 2026-04-20 13:00 | 42.99269 | 2.65304 | 16047 ft | 344 kts | 326° |
| 2026-04-20 13:00 | 43.01321 | 2.63648 | 16676 ft | 348 kts | 326° |
| 2026-04-20 13:00 | 43.03416 | 2.61957 | 17291 ft | 351 kts | 326° |
| 2026-04-20 13:00 | 43.05539 | 2.60240 | 17884 ft | 355 kts | 326° |
| 2026-04-20 13:01 | 43.07680 | 2.58504 | 18472 ft | 358 kts | 326° |
| 2026-04-20 13:01 | 43.09842 | 2.56754 | 19014 ft | 361 kts | 326° |
| 2026-04-20 13:01 | 43.11989 | 2.55022 | 19560 ft | 364 kts | 326° |
| 2026-04-20 13:01 | 43.14187 | 2.53248 | 20121 ft | 367 kts | 326° |
| 2026-04-20 13:02 | 43.16397 | 2.51453 | 20674 ft | 369 kts | 326° |
| 2026-04-20 13:02 | 43.18621 | 2.49643 | 21217 ft | 372 kts | 326° |
| 2026-04-20 13:02 | 43.20849 | 2.47805 | 21766 ft | 375 kts | 325° |
| 2026-04-20 13:02 | 43.23050 | 2.45928 | 22301 ft | 377 kts | 324° |
| 2026-04-20 13:03 | 43.25276 | 2.43994 | 22844 ft | 380 kts | 324° |
| 2026-04-20 13:03 | 43.27519 | 2.42037 | 23377 ft | 383 kts | 324° |
| 2026-04-20 13:03 | 43.29781 | 2.40060 | 23836 ft | 386 kts | 324° |
| 2026-04-20 13:03 | 43.32056 | 2.38076 | 24262 ft | 388 kts | 324° |
| 2026-04-20 13:04 | 43.34350 | 2.36086 | 24717 ft | 390 kts | 324° |
| 2026-04-20 13:04 | 43.36657 | 2.34087 | 25152 ft | 391 kts | 324° |
| 2026-04-20 13:04 | 43.38935 | 2.32100 | 25630 ft | 393 kts | 324° |
| 2026-04-20 13:04 | 43.41248 | 2.30071 | 26059 ft | 395 kts | 324° |
| 2026-04-20 13:05 | 43.43577 | 2.28020 | 26458 ft | 397 kts | 323° |
| 2026-04-20 13:05 | 43.45905 | 2.25970 | 26859 ft | 398 kts | 323° |
| 2026-04-20 13:05 | 43.48252 | 2.23898 | 27239 ft | 400 kts | 323° |
| 2026-04-20 13:05 | 43.50601 | 2.21804 | 27610 ft | 402 kts | 323° |
| 2026-04-20 13:06 | 43.52956 | 2.19686 | 27968 ft | 404 kts | 323° |
| 2026-04-20 13:06 | 43.55287 | 2.17581 | 28332 ft | 406 kts | 323° |
| 2026-04-20 13:06 | 43.57661 | 2.15441 | 28654 ft | 408 kts | 323° |
| 2026-04-20 13:06 | 43.60050 | 2.13297 | 29007 ft | 410 kts | 323° |
| 2026-04-20 13:07 | 43.62446 | 2.11147 | 29356 ft | 411 kts | 323° |
| 2026-04-20 13:07 | 43.64856 | 2.08982 | 29684 ft | 413 kts | 323° |
| 2026-04-20 13:07 | 43.67267 | 2.06811 | 30005 ft | 415 kts | 323° |
| 2026-04-20 13:07 | 43.69665 | 2.04648 | 30273 ft | 416 kts | 323° |
| 2026-04-20 13:08 | 43.72101 | 2.02452 | 30530 ft | 418 kts | 323° |
| 2026-04-20 13:08 | 43.74578 | 2.00271 | 30782 ft | 420 kts | 324° |
| 2026-04-20 13:08 | 43.77072 | 1.98131 | 31028 ft | 422 kts | 324° |
| 2026-04-20 13:08 | 43.79562 | 1.96024 | 31269 ft | 424 kts | 324° |
| 2026-04-20 13:09 | 43.82091 | 1.93884 | 31496 ft | 425 kts | 324° |
| 2026-04-20 13:09 | 43.84624 | 1.91734 | 31829 ft | 424 kts | 324° |
| 2026-04-20 13:09 | 43.87105 | 1.89615 | 32177 ft | 423 kts | 324° |
| 2026-04-20 13:09 | 43.89608 | 1.87460 | 32515 ft | 421 kts | 324° |
| 2026-04-20 13:10 | 43.92108 | 1.85297 | 32838 ft | 421 kts | 324° |
| 2026-04-20 13:10 | 43.94586 | 1.83145 | 33155 ft | 420 kts | 324° |
| 2026-04-20 13:10 | 43.97095 | 1.81052 | 33493 ft | 420 kts | 326° |
| 2026-04-20 13:10 | 43.99635 | 1.79127 | 33807 ft | 420 kts | 328° |
| 2026-04-20 13:11 | 44.02246 | 1.77271 | 33981 ft | 419 kts | 329° |
| 2026-04-20 13:11 | 44.04823 | 1.75500 | 34006 ft | 406 kts | 329° |
| 2026-04-20 13:11 | 44.07350 | 1.73768 | 34001 ft | 404 kts | 329° |
| 2026-04-20 13:12 | 44.12397 | 1.70275 | 33998 ft | 405 kts | 334° |
| 2026-04-20 13:12 | 44.15119 | 1.69295 | 34006 ft | 414 kts | 347° |
| 2026-04-20 13:12 | 44.17985 | 1.68753 | 34000 ft | 415 kts | 347° |
| 2026-04-20 13:13 | 44.23727 | 1.67725 | 33996 ft | 416 kts | 347° |
| 2026-04-20 13:13 | 44.29479 | 1.66700 | 34002 ft | 416 kts | 347° |
| 2026-04-20 13:14 | 44.35201 | 1.65668 | 34005 ft | 416 kts | 347° |
| 2026-04-20 13:14 | 44.40962 | 1.64611 | 34005 ft | 416 kts | 347° |
| 2026-04-20 13:15 | 44.46684 | 1.63558 | 34004 ft | 416 kts | 347° |
| 2026-04-20 13:15 | 44.52434 | 1.62503 | 34003 ft | 417 kts | 347° |
| 2026-04-20 13:16 | 44.58201 | 1.61453 | 34004 ft | 417 kts | 347° |
| 2026-04-20 13:16 | 44.63940 | 1.60406 | 34003 ft | 417 kts | 347° |
| 2026-04-20 13:17 | 44.69705 | 1.59345 | 34002 ft | 417 kts | 347° |
| 2026-04-20 13:17 | 44.75430 | 1.58280 | 33999 ft | 417 kts | 347° |
| 2026-04-20 13:18 | 44.80255 | 1.57388 | 33999 ft | 417 kts | 347° |
| 2026-04-20 13:18 | 44.85978 | 1.56331 | 34000 ft | 417 kts | 347° |
| 2026-04-20 13:19 | 44.91743 | 1.55268 | 33997 ft | 416 kts | 347° |
| 2026-04-20 13:19 | 44.97488 | 1.54203 | 33995 ft | 416 kts | 347° |
| 2026-04-20 13:20 | 45.03199 | 1.53137 | 33999 ft | 416 kts | 347° |
| 2026-04-20 13:20 | 45.08946 | 1.52063 | 33998 ft | 415 kts | 347° |
| 2026-04-20 13:21 | 45.14685 | 1.50990 | 33998 ft | 415 kts | 347° |
| 2026-04-20 13:21 | 45.20416 | 1.49917 | 34003 ft | 414 kts | 347° |
| 2026-04-20 13:22 | 45.26106 | 1.48847 | 34001 ft | 414 kts | 347° |
| 2026-04-20 13:22 | 45.31840 | 1.47775 | 34002 ft | 414 kts | 347° |
| 2026-04-20 13:23 | 45.37523 | 1.46705 | 34001 ft | 413 kts | 346° |
| 2026-04-20 13:23 | 45.43247 | 1.45619 | 34006 ft | 413 kts | 346° |
| 2026-04-20 13:24 | 45.48921 | 1.44542 | 34015 ft | 413 kts | 346° |
| 2026-04-20 13:24 | 45.54624 | 1.43452 | 34016 ft | 412 kts | 346° |
| 2026-04-20 13:25 | 45.60289 | 1.42366 | 34025 ft | 412 kts | 346° |
| 2026-04-20 13:25 | 45.65977 | 1.41291 | 34034 ft | 412 kts | 346° |
| 2026-04-20 13:26 | 45.71669 | 1.40209 | 34038 ft | 412 kts | 346° |
| 2026-04-20 13:26 | 45.77362 | 1.39118 | 34046 ft | 411 kts | 346° |
| 2026-04-20 13:27 | 45.83015 | 1.38046 | 34053 ft | 411 kts | 346° |
| 2026-04-20 13:27 | 45.88703 | 1.36947 | 34047 ft | 411 kts | 346° |
| 2026-04-20 13:28 | 45.94350 | 1.35852 | 34061 ft | 411 kts | 346° |
| 2026-04-20 13:28 | 46.00033 | 1.34756 | 34050 ft | 411 kts | 346° |
| 2026-04-20 13:29 | 46.05701 | 1.33663 | 34052 ft | 410 kts | 346° |
| 2026-04-20 13:29 | 46.11328 | 1.32576 | 34059 ft | 409 kts | 346° |
| 2026-04-20 13:30 | 46.16980 | 1.31475 | 34059 ft | 409 kts | 345° |
| 2026-04-20 13:30 | 46.22639 | 1.30375 | 34069 ft | 409 kts | 345° |
| 2026-04-20 13:31 | 46.28251 | 1.29285 | 34070 ft | 409 kts | 345° |
| 2026-04-20 13:31 | 46.33897 | 1.28192 | 34070 ft | 409 kts | 345° |
| 2026-04-20 13:32 | 46.39548 | 1.27084 | 34072 ft | 408 kts | 345° |
| 2026-04-20 13:32 | 46.45152 | 1.25973 | 34081 ft | 408 kts | 345° |
| 2026-04-20 13:33 | 46.50788 | 1.24863 | 34080 ft | 408 kts | 345° |
| 2026-04-20 13:33 | 46.56398 | 1.23763 | 34084 ft | 407 kts | 345° |
| 2026-04-20 13:34 | 46.62030 | 1.22658 | 34093 ft | 407 kts | 345° |
| 2026-04-20 13:34 | 46.67649 | 1.21552 | 34087 ft | 407 kts | 345° |
| 2026-04-20 13:35 | 46.73235 | 1.20445 | 34093 ft | 407 kts | 345° |
| 2026-04-20 13:35 | 46.78853 | 1.19331 | 34090 ft | 406 kts | 345° |
| 2026-04-20 13:36 | 46.84462 | 1.18220 | 34096 ft | 406 kts | 345° |
| 2026-04-20 13:36 | 46.90130 | 1.17086 | 34076 ft | 420 kts | 345° |
| 2026-04-20 13:37 | 46.95949 | 1.15909 | 34077 ft | 421 kts | 345° |
| 2026-04-20 13:37 | 47.01771 | 1.14747 | 34081 ft | 421 kts | 345° |
| 2026-04-20 13:38 | 47.07551 | 1.13605 | 33891 ft | 409 kts | 345° |
| 2026-04-20 13:38 | 47.10326 | 1.13066 | 33258 ft | 396 kts | 345° |
| 2026-04-20 13:38 | 47.13034 | 1.12532 | 32487 ft | 387 kts | 345° |
| 2026-04-20 13:38 | 47.15647 | 1.12007 | 31689 ft | 381 kts | 345° |
| 2026-04-20 13:39 | 47.18264 | 1.11476 | 30897 ft | 375 kts | 345° |
| 2026-04-20 13:39 | 47.20837 | 1.10951 | 30129 ft | 370 kts | 345° |
| 2026-04-20 13:39 | 47.23370 | 1.10432 | 29249 ft | 365 kts | 345° |
| 2026-04-20 13:39 | 47.25879 | 1.09916 | 28402 ft | 360 kts | 345° |
| 2026-04-20 13:40 | 47.28343 | 1.09412 | 27576 ft | 356 kts | 345° |
| 2026-04-20 13:40 | 47.30756 | 1.08917 | 26772 ft | 351 kts | 345° |
| 2026-04-20 13:40 | 47.33173 | 1.08426 | 25978 ft | 348 kts | 345° |
| 2026-04-20 13:40 | 47.35562 | 1.07945 | 25188 ft | 344 kts | 346° |
| 2026-04-20 13:41 | 47.37932 | 1.07467 | 24412 ft | 341 kts | 346° |
| 2026-04-20 13:41 | 47.40276 | 1.06991 | 23651 ft | 338 kts | 346° |
| 2026-04-20 13:41 | 47.42601 | 1.06827 | 22793 ft | 342 kts | 358° |
| 2026-04-20 13:41 | 47.44954 | 1.07475 | 21990 ft | 347 kts | 12° |
| 2026-04-20 13:42 | 47.47239 | 1.08628 | 21213 ft | 345 kts | 13° |
| 2026-04-20 13:42 | 47.51747 | 1.10926 | 19758 ft | 338 kts | 13° |
| 2026-04-20 13:42 | 47.53941 | 1.12042 | 19080 ft | 335 kts | 13° |
| 2026-04-20 13:43 | 47.56133 | 1.13156 | 18429 ft | 331 kts | 14° |
| 2026-04-20 13:43 | 47.58302 | 1.14258 | 17695 ft | 327 kts | 14° |
| 2026-04-20 13:43 | 47.60470 | 1.15357 | 17209 ft | 327 kts | 14° |
| 2026-04-20 13:43 | 47.62618 | 1.16454 | 16852 ft | 323 kts | 14° |
| 2026-04-20 13:44 | 47.64739 | 1.17539 | 16492 ft | 321 kts | 14° |
| 2026-04-20 13:44 | 47.66823 | 1.18599 | 16129 ft | 318 kts | 14° |
| 2026-04-20 13:44 | 47.68918 | 1.19664 | 15769 ft | 316 kts | 14° |
| 2026-04-20 13:44 | 47.70994 | 1.20723 | 15418 ft | 314 kts | 15° |
| 2026-04-20 13:45 | 47.73053 | 1.21779 | 15076 ft | 312 kts | 15° |
| 2026-04-20 13:45 | 47.75103 | 1.22831 | 14730 ft | 310 kts | 15° |
| 2026-04-20 13:45 | 47.77142 | 1.23877 | 14385 ft | 308 kts | 15° |
| 2026-04-20 13:45 | 47.79142 | 1.24901 | 14055 ft | 306 kts | 15° |
| 2026-04-20 13:46 | 47.81154 | 1.25933 | 13703 ft | 304 kts | 15° |
| 2026-04-20 13:46 | 47.83151 | 1.26959 | 13337 ft | 302 kts | 15° |
| 2026-04-20 13:46 | 47.85136 | 1.27979 | 12976 ft | 300 kts | 16° |
| 2026-04-20 13:46 | 47.87104 | 1.28990 | 12609 ft | 298 kts | 16° |
| 2026-04-20 13:47 | 47.89056 | 1.29994 | 12238 ft | 296 kts | 16° |
| 2026-04-20 13:47 | 47.90994 | 1.30990 | 11887 ft | 293 kts | 16° |
| 2026-04-20 13:47 | 47.92920 | 1.31982 | 11523 ft | 291 kts | 16° |
| 2026-04-20 13:47 | 47.94814 | 1.32959 | 11172 ft | 289 kts | 16° |
| 2026-04-20 13:48 | 47.96715 | 1.33938 | 10860 ft | 287 kts | 16° |
| 2026-04-20 13:48 | 47.98599 | 1.34909 | 10557 ft | 285 kts | 17° |
| 2026-04-20 13:48 | 48.00467 | 1.35878 | 10244 ft | 283 kts | 18° |
| 2026-04-20 13:48 | 48.02317 | 1.36837 | 10103 ft | 280 kts | 17° |
| 2026-04-20 13:49 | 48.04139 | 1.37781 | 10120 ft | 280 kts | 17° |
| 2026-04-20 13:49 | 48.05956 | 1.38846 | 10127 ft | 281 kts | 25° |
| 2026-04-20 13:49 | 48.07623 | 1.40408 | 10132 ft | 283 kts | 32° |
| 2026-04-20 13:49 | 48.09259 | 1.42072 | 10119 ft | 283 kts | 32° |
| 2026-04-20 13:50 | 48.10896 | 1.43727 | 10123 ft | 283 kts | 31° |
| 2026-04-20 13:50 | 48.12533 | 1.45378 | 10121 ft | 283 kts | 31° |
| 2026-04-20 13:50 | 48.14169 | 1.47025 | 10125 ft | 283 kts | 31° |
| 2026-04-20 13:50 | 48.15778 | 1.48647 | 10121 ft | 282 kts | 32° |
| 2026-04-20 13:51 | 48.17413 | 1.50296 | 10134 ft | 282 kts | 32° |
| 2026-04-20 13:51 | 48.19043 | 1.51944 | 10126 ft | 282 kts | 32° |
| 2026-04-20 13:51 | 48.20673 | 1.53601 | 10120 ft | 282 kts | 32° |
| 2026-04-20 13:51 | 48.22284 | 1.55240 | 10135 ft | 282 kts | 32° |
| 2026-04-20 13:52 | 48.23908 | 1.56893 | 10140 ft | 282 kts | 32° |
| 2026-04-20 13:52 | 48.25512 | 1.58622 | 10133 ft | 282 kts | 35° |
| 2026-04-20 13:52 | 48.27072 | 1.60434 | 10132 ft | 282 kts | 36° |
| 2026-04-20 13:52 | 48.28605 | 1.62262 | 9883 ft | 280 kts | 36° |
| 2026-04-20 13:53 | 48.30127 | 1.64084 | 9461 ft | 279 kts | 36° |
| 2026-04-20 13:53 | 48.31644 | 1.65895 | 9057 ft | 277 kts | 37° |
| 2026-04-20 13:53 | 48.33126 | 1.67661 | 8666 ft | 275 kts | 36° |
| 2026-04-20 13:53 | 48.34624 | 1.69443 | 8264 ft | 273 kts | 37° |
| 2026-04-20 13:54 | 48.36114 | 1.71209 | 7869 ft | 271 kts | 37° |
| 2026-04-20 13:54 | 48.37597 | 1.72958 | 7471 ft | 269 kts | 37° |
| 2026-04-20 13:54 | 48.39054 | 1.74671 | 7079 ft | 268 kts | 37° |
| 2026-04-20 13:54 | 48.40522 | 1.76402 | 6683 ft | 266 kts | 37° |
| 2026-04-20 13:55 | 48.41979 | 1.78126 | 6266 ft | 264 kts | 38° |
| 2026-04-20 13:55 | 48.43419 | 1.79834 | 5850 ft | 262 kts | 38° |
| 2026-04-20 13:55 | 48.44826 | 1.81504 | 5494 ft | 259 kts | 39° |
| 2026-04-20 13:55 | 48.46233 | 1.83173 | 5160 ft | 255 kts | 39° |
| 2026-04-20 13:56 | 48.47628 | 1.84827 | 4796 ft | 253 kts | 39° |
| 2026-04-20 13:56 | 48.49004 | 1.86464 | 4412 ft | 251 kts | 39° |
| 2026-04-20 13:56 | 48.49915 | 1.87548 | 4135 ft | 249 kts | 39° |
| 2026-04-20 13:56 | 48.51722 | 1.89698 | 3656 ft | 248 kts | 39° |
| 2026-04-20 13:57 | 48.53069 | 1.91302 | 3336 ft | 246 kts | 39° |
| 2026-04-20 13:57 | 48.53951 | 1.92353 | 3223 ft | 238 kts | 38° |
| 2026-04-20 13:57 | 48.55226 | 1.93873 | 3105 ft | 228 kts | 39° |
| 2026-04-20 13:57 | 48.56440 | 1.95319 | 3007 ft | 214 kts | 39° |
| 2026-04-20 13:58 | 48.57566 | 1.96661 | 2995 ft | 200 kts | 39° |
| 2026-04-20 13:58 | 48.58611 | 1.97907 | 2992 ft | 186 kts | 39° |
| 2026-04-20 13:58 | 48.59602 | 1.99093 | 3007 ft | 181 kts | 39° |
| 2026-04-20 13:58 | 48.60567 | 2.00255 | 3023 ft | 165 kts | 41° |
| 2026-04-20 13:59 | 48.61249 | 2.01479 | 3008 ft | 142 kts | 58° |
| 2026-04-20 13:59 | 48.61708 | 2.02775 | 3013 ft | 142 kts | 60° |
| 2026-04-20 13:59 | 48.62177 | 2.04092 | 3027 ft | 143 kts | 59° |
| 2026-04-20 13:59 | 48.62661 | 2.05442 | 2998 ft | 143 kts | 60° |
| 2026-04-20 14:00 | 48.63133 | 2.06762 | 3017 ft | 145 kts | 62° |
| 2026-04-20 14:00 | 48.63606 | 2.08091 | 3006 ft | 142 kts | 60° |
| 2026-04-20 14:00 | 48.64079 | 2.09416 | 3003 ft | 143 kts | 60° |
| 2026-04-20 14:00 | 48.64549 | 2.10730 | 3005 ft | 140 kts | 59° |
| 2026-04-20 14:01 | 48.65013 | 2.12031 | 3004 ft | 141 kts | 59° |
| 2026-04-20 14:01 | 48.65424 | 2.13185 | 3021 ft | 143 kts | 59° |
| 2026-04-20 14:01 | 48.65906 | 2.14534 | 3005 ft | 142 kts | 59° |
| 2026-04-20 14:01 | 48.66371 | 2.15852 | 2850 ft | 144 kts | 62° |
| 2026-04-20 14:02 | 48.66845 | 2.17191 | 2584 ft | 144 kts | 60° |
| 2026-04-20 14:02 | 48.67308 | 2.18496 | 2372 ft | 140 kts | 60° |
| 2026-04-20 14:02 | 48.67770 | 2.19797 | 2169 ft | 139 kts | 58° |
| 2026-04-20 14:02 | 48.68230 | 2.21088 | 1972 ft | 139 kts | 58° |
| 2026-04-20 14:03 | 48.68690 | 2.22382 | 1786 ft | 139 kts | 62° |
| 2026-04-20 14:03 | 48.69148 | 2.23667 | 1577 ft | 139 kts | 60° |
| 2026-04-20 14:03 | 48.69608 | 2.24962 | 1383 ft | 137 kts | 59° |
| 2026-04-20 14:03 | 48.70065 | 2.26245 | 1181 ft | 142 kts | 60° |
| 2026-04-20 14:04 | 48.70522 | 2.27535 | 994 ft | 137 kts | 59° |
| 2026-04-20 14:04 | 48.70977 | 2.28816 | 816 ft | 139 kts | 62° |
| 2026-04-20 14:04 | 48.71430 | 2.30113 | 576 ft | 138 kts | 60° |
| 2026-04-20 14:04 | 48.71884 | 2.31355 | 413 ft | 136 kts | 60° |
| 2026-04-20 14:05 | 48.72312 | 2.32607 | 307 ft | 125 kts | 60° |
| 2026-04-20 14:05 | 48.72679 | 2.33601 | 301 ft | 91 kts | 60° |
| 2026-04-20 14:05 | 48.72940 | 2.34346 | 302 ft | 70 kts | 62° |
| 2026-04-20 14:05 | 48.73150 | 2.34922 | 302 ft | 55 kts | 61° |
| 2026-04-20 14:06 | 48.73310 | 2.35376 | 300 ft | 45 kts | 62° |
| 2026-04-20 14:06 | 48.73439 | 2.35760 | 297 ft | 38 kts | 63° |
| 2026-04-20 14:06 | 48.73503 | 2.36004 | 299 ft | 14 kts | 95° |
| 2026-04-20 14:06 | 48.73441 | 2.36108 | 301 ft | 13 kts | 163° |
| 2026-04-20 14:07 | 48.73420 | 2.36107 | 303 ft | 0 kts | 184° |
| 2026-04-20 14:07 | 48.73417 | 2.36107 | 303 ft | 2 kts | 184° |
| 2026-04-20 14:07 | 48.73403 | 2.36105 | 299 ft | 1 kts | 184° |
| 2026-04-20 14:07 | 48.73402 | 2.36105 | 299 ft | 0 kts | 184° |
| 2026-04-20 14:08 | 48.73401 | 2.36104 | 299 ft | 2 kts | 194° |
| 2026-04-20 14:08 | 48.73323 | 2.36083 | 303 ft | 17 kts | 161° |
| 2026-04-20 14:09 | 48.73234 | 2.36064 | 299 ft | 13 kts | 229° |
| 2026-04-20 14:09 | 48.73187 | 2.35960 | 301 ft | 12 kts | 237° |
| 2026-04-20 14:09 | 48.73134 | 2.35916 | 300 ft | 8 kts | 164° |
| 2026-04-20 14:09 | 48.73107 | 2.35925 | 301 ft | 0 kts | 167° |
| 2026-04-20 14:10 | 48.73101 | 2.35927 | 300 ft | 0 kts | 167° |
| 2026-04-20 14:12 | 48.73101 | 2.35926 | 300 ft | 0 kts | 167° |